Aérodrome :
LOGIN :

S'inscrire | Disclaimer

   EN    FR    IT 

 










Légende :    VFR   VFR Marginal   IFR   IFR Intensif   IFR Très Intensif
Visi : 
Plafond : 
>= 8 km
>= 3000ft
5 à 8 km
1000 à 3000 ft
1500m à 5 km
500 à 1000 ft
800 à 1500m
200 à 500 ft
< 800m
< 200 ft
Symboles :   Orages  Brouillard  Fortes neiges  Fortes précipitations  Vent > 20 kt
SIGMETs :   Divers  Orages  Givrage  Turbulence  Onde Orograph.  Cendres Volcan.






- Altitude de l'aérodrome : 670 ft
- Code IATA : MSQ


UMMS - Minsk - 2

DERNIER METAR :
  • 042100Z 19002MPS 150V220 9999 SCT046 09/08 Q1002 R13L/CLRD// R13R/////// NOSIG

METARs EXPIRÉS :
  • 042030Z 13002MPS 9999 SCT039 09/08 Q1001 R13L/CLRD// R13R/////// NOSIG
  • 042000Z 14002MPS 9999 SCT043 09/08 Q1001 R13L/CLRD// R13R/////// NOSIG
  • 041930Z VRB01MPS 9999 SCT043 10/08 Q1001 R13L/CLRD// R13R/////// NOSIG
  • 041900Z 21002MPS 9999 SCT030 10/08 Q1001 R13L/CLRD// R13R/////// NOSIG
  • 041830Z 20002MPS CAVOK 12/08 Q1001 R13L/CLRD// R13R/////// NOSIG

TAF TAF UMMS
Valide du 04 à 18h jusqu'au 05 à 18h UTC


041701Z 0418/0518 18005MPS 9999 BKN020
TEMPO 0418/0420 5000 -SHRA BKN005 BKN015CB
BECMG 0420/0421 2000 BR BKN005
TEMPO 0421/0506 VRB02MPS 0300 FG SCT002
BECMG 0506/0507 18005G10MPS 9999 NSW BKN020
TEMPO 0512/0518 19007G12MPS 2100 -SHRA BKN007 BKN020CB



MET'MAP, la Météo Aéronautique d'un coup d'oeil ! - Copyright ORBIFLY Décembre 2007 - Disclaimer

ORBIFLY MET'MAP TEAM :

Programmation & Développement : Alexandra Zaïnal
Sur une idée originale de : Baudouin d'Aumeries
Assistance à la programmation : Marc-Olivier Méhu
Soutien technique & logistique : Manuel Goepfert

Contact : metmap@orbifly.com




SOURCES & CREDITS :

   NOAA